sensor_id;sensor_type;location;lat;lon;timestamp;temperature;humidity
2749;DHT22;1382;52.142;11.618;2023-02-28T00:01:21;4.50;52.90
2749;DHT22;1382;52.142;11.618;2023-02-28T00:03:48;4.60;53.00
2749;DHT22;1382;52.142;11.618;2023-02-28T00:06:16;4.50;52.90
2749;DHT22;1382;52.142;11.618;2023-02-28T00:08:43;4.50;52.80
2749;DHT22;1382;52.142;11.618;2023-02-28T00:11:11;4.50;52.80
2749;DHT22;1382;52.142;11.618;2023-02-28T00:13:41;4.50;52.80
2749;DHT22;1382;52.142;11.618;2023-02-28T00:16:10;4.50;52.80
2749;DHT22;1382;52.142;11.618;2023-02-28T00:18:38;4.50;52.80
2749;DHT22;1382;52.142;11.618;2023-02-28T00:21:05;4.50;52.90
2749;DHT22;1382;52.142;11.618;2023-02-28T00:23:32;4.50;52.90
2749;DHT22;1382;52.142;11.618;2023-02-28T00:25:59;4.50;52.90
2749;DHT22;1382;52.142;11.618;2023-02-28T00:28:26;4.50;52.80
2749;DHT22;1382;52.142;11.618;2023-02-28T00:30:54;4.50;52.80
2749;DHT22;1382;52.142;11.618;2023-02-28T00:33:21;4.50;52.80
2749;DHT22;1382;52.142;11.618;2023-02-28T00:35:47;4.50;52.80
2749;DHT22;1382;52.142;11.618;2023-02-28T00:38:15;4.50;52.80
2749;DHT22;1382;52.142;11.618;2023-02-28T00:40:42;4.60;52.80
2749;DHT22;1382;52.142;11.618;2023-02-28T00:43:08;4.50;52.70
2749;DHT22;1382;52.142;11.618;2023-02-28T00:45:35;4.60;52.80
2749;DHT22;1382;52.142;11.618;2023-02-28T00:48:04;4.50;52.80
2749;DHT22;1382;52.142;11.618;2023-02-28T00:50:30;4.50;52.80
2749;DHT22;1382;52.142;11.618;2023-02-28T00:52:57;4.50;52.70
2749;DHT22;1382;52.142;11.618;2023-02-28T00:55:24;4.60;52.90
2749;DHT22;1382;52.142;11.618;2023-02-28T00:57:51;4.60;52.90
2749;DHT22;1382;52.142;11.618;2023-02-28T01:00:18;4.60;52.80
2749;DHT22;1382;52.142;11.618;2023-02-28T01:02:45;4.60;52.80
2749;DHT22;1382;52.142;11.618;2023-02-28T01:05:13;4.80;53.00
2749;DHT22;1382;52.142;11.618;2023-02-28T01:07:40;4.60;52.80
2749;DHT22;1382;52.142;11.618;2023-02-28T01:10:08;4.60;52.90
2749;DHT22;1382;52.142;11.618;2023-02-28T01:12:35;4.60;52.90
2749;DHT22;1382;52.142;11.618;2023-02-28T01:15:02;4.60;52.80
2749;DHT22;1382;52.142;11.618;2023-02-28T01:17:29;4.60;52.80
2749;DHT22;1382;52.142;11.618;2023-02-28T01:19:55;4.60;52.70
2749;DHT22;1382;52.142;11.618;2023-02-28T01:22:24;4.60;52.70
2749;DHT22;1382;52.142;11.618;2023-02-28T01:24:51;4.80;52.90
2749;DHT22;1382;52.142;11.618;2023-02-28T01:27:17;4.60;52.70
2749;DHT22;1382;52.142;11.618;2023-02-28T01:29:44;4.60;52.60
2749;DHT22;1382;52.142;11.618;2023-02-28T01:32:11;4.60;52.60
2749;DHT22;1382;52.142;11.618;2023-02-28T01:34:38;4.60;52.70
2749;DHT22;1382;52.142;11.618;2023-02-28T01:37:05;4.60;53.30
2749;DHT22;1382;52.142;11.618;2023-02-28T01:39:33;4.60;52.70
2749;DHT22;1382;52.142;11.618;2023-02-28T01:42:00;4.60;52.70
2749;DHT22;1382;52.142;11.618;2023-02-28T01:44:57;4.60;52.60
2749;DHT22;1382;52.142;11.618;2023-02-28T01:47:26;4.70;52.60
2749;DHT22;1382;52.142;11.618;2023-02-28T01:49:53;4.60;52.60
2749;DHT22;1382;52.142;11.618;2023-02-28T01:52:21;4.60;52.60
2749;DHT22;1382;52.142;11.618;2023-02-28T01:54:52;4.60;52.60
2749;DHT22;1382;52.142;11.618;2023-02-28T01:57:23;4.60;52.60
2749;DHT22;1382;52.142;11.618;2023-02-28T01:59:54;4.60;52.60
2749;DHT22;1382;52.142;11.618;2023-02-28T02:02:24;4.60;52.60
2749;DHT22;1382;52.142;11.618;2023-02-28T02:04:54;4.60;52.60
2749;DHT22;1382;52.142;11.618;2023-02-28T02:07:22;4.60;52.70
2749;DHT22;1382;52.142;11.618;2023-02-28T02:09:59;4.60;52.70
2749;DHT22;1382;52.142;11.618;2023-02-28T02:12:35;4.60;52.70
2749;DHT22;1382;52.142;11.618;2023-02-28T02:15:12;4.70;52.70
2749;DHT22;1382;52.142;11.618;2023-02-28T02:17:45;4.50;52.60
2749;DHT22;1382;52.142;11.618;2023-02-28T02:20:52;4.50;52.60
2749;DHT22;1382;52.142;11.618;2023-02-28T02:23:41;4.60;52.60
2749;DHT22;1382;52.142;11.618;2023-02-28T02:26:34;4.50;52.60
2749;DHT22;1382;52.142;11.618;2023-02-28T02:29:31;4.50;52.70
2749;DHT22;1382;52.142;11.618;2023-02-28T02:32:14;4.50;52.70
2749;DHT22;1382;52.142;11.618;2023-02-28T02:34:50;4.50;52.70
2749;DHT22;1382;52.142;11.618;2023-02-28T02:37:27;4.40;52.70
2749;DHT22;1382;52.142;11.618;2023-02-28T02:40:00;4.40;52.60
2749;DHT22;1382;52.142;11.618;2023-02-28T02:42:36;4.50;52.70
2749;DHT22;1382;52.142;11.618;2023-02-28T02:45:08;4.40;52.60
2749;DHT22;1382;52.142;11.618;2023-02-28T02:47:37;4.40;52.50
2749;DHT22;1382;52.142;11.618;2023-02-28T02:50:11;4.40;52.50
2749;DHT22;1382;52.142;11.618;2023-02-28T02:52:42;4.40;52.50
2749;DHT22;1382;52.142;11.618;2023-02-28T02:55:13;4.40;52.60
2749;DHT22;1382;52.142;11.618;2023-02-28T02:57:43;4.40;52.60
2749;DHT22;1382;52.142;11.618;2023-02-28T03:00:12;4.40;53.30
2749;DHT22;1382;52.142;11.618;2023-02-28T03:02:41;4.40;52.70
2749;DHT22;1382;52.142;11.618;2023-02-28T03:05:15;4.60;52.80
2749;DHT22;1382;52.142;11.618;2023-02-28T03:07:43;4.60;52.80
2749;DHT22;1382;52.142;11.618;2023-02-28T03:10:32;4.40;52.70
2749;DHT22;1382;52.142;11.618;2023-02-28T03:13:11;4.50;52.60
2749;DHT22;1382;52.142;11.618;2023-02-28T03:15:48;4.40;52.60
2749;DHT22;1382;52.142;11.618;2023-02-28T03:18:23;4.40;52.70
2749;DHT22;1382;52.142;11.618;2023-02-28T03:20:58;4.40;52.70
2749;DHT22;1382;52.142;11.618;2023-02-28T03:23:31;4.40;53.30
2749;DHT22;1382;52.142;11.618;2023-02-28T03:26:04;4.40;52.60
2749;DHT22;1382;52.142;11.618;2023-02-28T03:28:40;4.40;52.60
2749;DHT22;1382;52.142;11.618;2023-02-28T03:31:12;4.40;52.50
2749;DHT22;1382;52.142;11.618;2023-02-28T03:33:44;4.40;52.50
2749;DHT22;1382;52.142;11.618;2023-02-28T03:36:17;4.40;52.50
2749;DHT22;1382;52.142;11.618;2023-02-28T03:38:49;4.50;52.50
2749;DHT22;1382;52.142;11.618;2023-02-28T03:41:19;4.40;52.50
2749;DHT22;1382;52.142;11.618;2023-02-28T03:43:51;4.40;52.50
2749;DHT22;1382;52.142;11.618;2023-02-28T03:46:24;4.40;52.50
2749;DHT22;1382;52.142;11.618;2023-02-28T03:48:55;4.40;52.50
2749;DHT22;1382;52.142;11.618;2023-02-28T03:51:24;4.40;53.20
2749;DHT22;1382;52.142;11.618;2023-02-28T03:53:57;4.40;52.40
2749;DHT22;1382;52.142;11.618;2023-02-28T03:56:30;4.40;52.40
2749;DHT22;1382;52.142;11.618;2023-02-28T03:59:01;4.40;52.40
2749;DHT22;1382;52.142;11.618;2023-02-28T04:01:33;4.40;52.40
2749;DHT22;1382;52.142;11.618;2023-02-28T04:04:01;4.40;52.40
2749;DHT22;1382;52.142;11.618;2023-02-28T04:06:32;4.40;52.40
2749;DHT22;1382;52.142;11.618;2023-02-28T04:08:59;4.40;52.40
2749;DHT22;1382;52.142;11.618;2023-02-28T04:11:31;4.40;53.00
2749;DHT22;1382;52.142;11.618;2023-02-28T04:13:58;4.40;52.40
2749;DHT22;1382;52.142;11.618;2023-02-28T04:16:25;4.40;52.40
2749;DHT22;1382;52.142;11.618;2023-02-28T04:19:01;4.40;52.40
2749;DHT22;1382;52.142;11.618;2023-02-28T04:21:30;4.30;52.30
2749;DHT22;1382;52.142;11.618;2023-02-28T04:23:58;4.30;52.30
2749;DHT22;1382;52.142;11.618;2023-02-28T04:26:25;4.30;52.30
2749;DHT22;1382;52.142;11.618;2023-02-28T04:28:51;4.30;52.30
2749;DHT22;1382;52.142;11.618;2023-02-28T04:31:18;4.30;52.30
2749;DHT22;1382;52.142;11.618;2023-02-28T04:33:45;4.30;52.20
2749;DHT22;1382;52.142;11.618;2023-02-28T04:36:12;4.30;52.20
2749;DHT22;1382;52.142;11.618;2023-02-28T04:38:40;4.50;52.40
2749;DHT22;1382;52.142;11.618;2023-02-28T04:41:07;4.30;52.20
2749;DHT22;1382;52.142;11.618;2023-02-28T04:43:34;4.30;52.20
2749;DHT22;1382;52.142;11.618;2023-02-28T04:46:02;4.30;52.30
2749;DHT22;1382;52.142;11.618;2023-02-28T04:48:31;4.30;52.20
2749;DHT22;1382;52.142;11.618;2023-02-28T04:51:00;4.30;52.20
2749;DHT22;1382;52.142;11.618;2023-02-28T04:53:28;4.20;52.10
2749;DHT22;1382;52.142;11.618;2023-02-28T04:55:56;4.30;52.20
2749;DHT22;1382;52.142;11.618;2023-02-28T04:58:24;4.20;52.10
2749;DHT22;1382;52.142;11.618;2023-02-28T05:00:51;4.20;52.10
2749;DHT22;1382;52.142;11.618;2023-02-28T05:03:18;4.20;52.10
2749;DHT22;1382;52.142;11.618;2023-02-28T05:05:45;4.20;52.10
2749;DHT22;1382;52.142;11.618;2023-02-28T05:08:12;4.20;52.10
2749;DHT22;1382;52.142;11.618;2023-02-28T05:10:39;4.20;52.10
2749;DHT22;1382;52.142;11.618;2023-02-28T05:13:09;4.10;52.00
2749;DHT22;1382;52.142;11.618;2023-02-28T05:15:37;4.10;52.00
2749;DHT22;1382;52.142;11.618;2023-02-28T05:18:04;4.10;51.90
2749;DHT22;1382;52.142;11.618;2023-02-28T05:20:31;4.10;51.90
2749;DHT22;1382;52.142;11.618;2023-02-28T05:22:58;4.00;51.80
2749;DHT22;1382;52.142;11.618;2023-02-28T05:25:25;4.00;51.80
2749;DHT22;1382;52.142;11.618;2023-02-28T05:27:52;4.10;51.90
2749;DHT22;1382;52.142;11.618;2023-02-28T05:30:20;3.90;51.80
2749;DHT22;1382;52.142;11.618;2023-02-28T05:32:51;3.90;51.80
2749;DHT22;1382;52.142;11.618;2023-02-28T05:35:18;3.80;51.70
2749;DHT22;1382;52.142;11.618;2023-02-28T05:37:44;3.80;51.70
2749;DHT22;1382;52.142;11.618;2023-02-28T05:40:12;3.70;51.70
2749;DHT22;1382;52.142;11.618;2023-02-28T05:42:39;3.70;51.70
2749;DHT22;1382;52.142;11.618;2023-02-28T05:45:07;3.70;51.70
2749;DHT22;1382;52.142;11.618;2023-02-28T05:47:35;3.60;51.60
2749;DHT22;1382;52.142;11.618;2023-02-28T05:50:03;3.60;51.60
2749;DHT22;1382;52.142;11.618;2023-02-28T05:52:30;3.60;51.70
2749;DHT22;1382;52.142;11.618;2023-02-28T05:54:57;3.50;51.60
2749;DHT22;1382;52.142;11.618;2023-02-28T05:57:24;3.50;51.60
2749;DHT22;1382;52.142;11.618;2023-02-28T05:59:51;3.40;51.60
2749;DHT22;1382;52.142;11.618;2023-02-28T06:02:18;3.40;51.60
2749;DHT22;1382;52.142;11.618;2023-02-28T06:04:46;3.40;51.60
2749;DHT22;1382;52.142;11.618;2023-02-28T06:07:13;3.30;51.60
2749;DHT22;1382;52.142;11.618;2023-02-28T06:09:40;3.30;51.60
2749;DHT22;1382;52.142;11.618;2023-02-28T06:12:07;3.30;51.60
2749;DHT22;1382;52.142;11.618;2023-02-28T06:14:34;3.40;51.70
2749;DHT22;1382;52.142;11.618;2023-02-28T06:17:02;3.20;51.60
2749;DHT22;1382;52.142;11.618;2023-02-28T06:19:29;3.20;51.70
2749;DHT22;1382;52.142;11.618;2023-02-28T06:21:58;3.10;51.60
2749;DHT22;1382;52.142;11.618;2023-02-28T06:24:25;3.20;51.70
2749;DHT22;1382;52.142;11.618;2023-02-28T06:26:53;3.00;51.50
2749;DHT22;1382;52.142;11.618;2023-02-28T06:29:19;3.00;51.60
2749;DHT22;1382;52.142;11.618;2023-02-28T06:31:46;3.00;51.60
2749;DHT22;1382;52.142;11.618;2023-02-28T06:34:14;2.90;51.60
2749;DHT22;1382;52.142;11.618;2023-02-28T06:36:41;2.90;51.70
2749;DHT22;1382;52.142;11.618;2023-02-28T06:39:10;2.90;51.70
2749;DHT22;1382;52.142;11.618;2023-02-28T06:41:36;3.10;51.90
2749;DHT22;1382;52.142;11.618;2023-02-28T06:44:19;2.80;51.70
2749;DHT22;1382;52.142;11.618;2023-02-28T06:46:46;2.80;51.70
2749;DHT22;1382;52.142;11.618;2023-02-28T06:49:13;2.80;51.80
2749;DHT22;1382;52.142;11.618;2023-02-28T06:51:42;2.80;51.80
2749;DHT22;1382;52.142;11.618;2023-02-28T06:54:11;2.80;51.90
2749;DHT22;1382;52.142;11.618;2023-02-28T06:56:38;2.80;52.00
2749;DHT22;1382;52.142;11.618;2023-02-28T06:59:06;2.70;52.00
2749;DHT22;1382;52.142;11.618;2023-02-28T07:01:32;2.90;52.20
2749;DHT22;1382;52.142;11.618;2023-02-28T07:04:00;2.90;52.30
2749;DHT22;1382;52.142;11.618;2023-02-28T07:06:27;2.80;52.30
2749;DHT22;1382;52.142;11.618;2023-02-28T07:08:55;2.80;52.30
2749;DHT22;1382;52.142;11.618;2023-02-28T07:11:25;2.80;52.40
2749;DHT22;1382;52.142;11.618;2023-02-28T07:13:52;2.80;52.40
2749;DHT22;1382;52.142;11.618;2023-02-28T07:16:19;3.00;52.70
2749;DHT22;1382;52.142;11.618;2023-02-28T07:18:46;2.80;52.60
2749;DHT22;1382;52.142;11.618;2023-02-28T07:21:13;2.90;52.80
2749;DHT22;1382;52.142;11.618;2023-02-28T07:23:41;2.90;52.90
2749;DHT22;1382;52.142;11.618;2023-02-28T07:26:11;2.90;53.10
2749;DHT22;1382;52.142;11.618;2023-02-28T07:28:39;3.00;53.20
2749;DHT22;1382;52.142;11.618;2023-02-28T07:31:07;3.00;53.30
2749;DHT22;1382;52.142;11.618;2023-02-28T07:33:35;3.00;53.40
2749;DHT22;1382;52.142;11.618;2023-02-28T07:36:02;3.10;53.50
2749;DHT22;1382;52.142;11.618;2023-02-28T07:38:29;3.10;53.60
2749;DHT22;1382;52.142;11.618;2023-02-28T07:40:56;3.20;53.80
2749;DHT22;1382;52.142;11.618;2023-02-28T07:43:23;3.20;54.50
2749;DHT22;1382;52.142;11.618;2023-02-28T07:45:51;3.30;53.90
2749;DHT22;1382;52.142;11.618;2023-02-28T07:48:18;3.40;54.00
2749;DHT22;1382;52.142;11.618;2023-02-28T07:50:45;3.40;54.00
2749;DHT22;1382;52.142;11.618;2023-02-28T07:53:20;3.50;54.10
2749;DHT22;1382;52.142;11.618;2023-02-28T07:55:46;3.60;54.20
2749;DHT22;1382;52.142;11.618;2023-02-28T07:58:13;3.70;54.30
2749;DHT22;1382;52.142;11.618;2023-02-28T08:00:40;3.70;54.30
2749;DHT22;1382;52.142;11.618;2023-02-28T08:03:11;3.70;54.30
2749;DHT22;1382;52.142;11.618;2023-02-28T08:05:38;3.80;54.30
2749;DHT22;1382;52.142;11.618;2023-02-28T08:08:05;4.10;54.50
2749;DHT22;1382;52.142;11.618;2023-02-28T08:10:32;4.00;54.40
2749;DHT22;1382;52.142;11.618;2023-02-28T08:12:59;4.10;54.40
2749;DHT22;1382;52.142;11.618;2023-02-28T08:15:26;4.20;54.50
2749;DHT22;1382;52.142;11.618;2023-02-28T08:17:53;4.20;54.50
2749;DHT22;1382;52.142;11.618;2023-02-28T08:20:21;4.30;54.50
2749;DHT22;1382;52.142;11.618;2023-02-28T08:22:48;4.40;54.50
2749;DHT22;1382;52.142;11.618;2023-02-28T08:25:15;4.50;54.60
2749;DHT22;1382;52.142;11.618;2023-02-28T08:27:42;4.70;54.80
2749;DHT22;1382;52.142;11.618;2023-02-28T08:30:11;4.70;54.70
2749;DHT22;1382;52.142;11.618;2023-02-28T08:32:38;4.80;54.80
2749;DHT22;1382;52.142;11.618;2023-02-28T08:35:06;4.90;54.80
2749;DHT22;1382;52.142;11.618;2023-02-28T08:37:34;5.00;54.80
2749;DHT22;1382;52.142;11.618;2023-02-28T08:40:01;5.10;54.80
2749;DHT22;1382;52.142;11.618;2023-02-28T08:42:28;5.20;54.80
2749;DHT22;1382;52.142;11.618;2023-02-28T08:44:54;5.30;54.70
2749;DHT22;1382;52.142;11.618;2023-02-28T08:47:21;5.40;54.80
2749;DHT22;1382;52.142;11.618;2023-02-28T08:49:48;5.60;55.20
2749;DHT22;1382;52.142;11.618;2023-02-28T08:52:15;5.60;55.30
2749;DHT22;1382;52.142;11.618;2023-02-28T08:54:43;5.70;55.30
2749;DHT22;1382;52.142;11.618;2023-02-28T08:57:10;5.80;55.40
2749;DHT22;1382;52.142;11.618;2023-02-28T08:59:37;5.90;55.40
2749;DHT22;1382;52.142;11.618;2023-02-28T09:02:03;6.00;54.60
2749;DHT22;1382;52.142;11.618;2023-02-28T09:04:30;6.10;55.30
2749;DHT22;1382;52.142;11.618;2023-02-28T09:06:57;6.20;55.80
2749;DHT22;1382;52.142;11.618;2023-02-28T09:09:24;6.50;56.20
2749;DHT22;1382;52.142;11.618;2023-02-28T09:11:52;6.50;56.20
2749;DHT22;1382;52.142;11.618;2023-02-28T09:14:19;6.60;56.60
2749;DHT22;1382;52.142;11.618;2023-02-28T09:16:46;6.70;56.60
2749;DHT22;1382;52.142;11.618;2023-02-28T09:19:12;6.80;56.40
2749;DHT22;1382;52.142;11.618;2023-02-28T09:21:40;6.90;56.60
2749;DHT22;1382;52.142;11.618;2023-02-28T09:24:07;7.00;56.70
2749;DHT22;1382;52.142;11.618;2023-02-28T09:26:34;7.10;56.70
2749;DHT22;1382;52.142;11.618;2023-02-28T09:29:14;7.30;56.30
2749;DHT22;1382;52.142;11.618;2023-02-28T09:31:41;7.40;56.00
2749;DHT22;1382;52.142;11.618;2023-02-28T09:34:07;7.50;55.60
2749;DHT22;1382;52.142;11.618;2023-02-28T09:36:35;7.60;56.30
2749;DHT22;1382;52.142;11.618;2023-02-28T09:39:12;7.80;56.70
2749;DHT22;1382;52.142;11.618;2023-02-28T09:41:41;7.90;56.70
2749;DHT22;1382;52.142;11.618;2023-02-28T09:44:15;8.00;56.80
2749;DHT22;1382;52.142;11.618;2023-02-28T09:46:46;8.10;56.90
2749;DHT22;1382;52.142;11.618;2023-02-28T09:49:17;8.20;56.80
2749;DHT22;1382;52.142;11.618;2023-02-28T09:51:49;8.30;56.50
2749;DHT22;1382;52.142;11.618;2023-02-28T09:54:30;8.40;55.10
2749;DHT22;1382;52.142;11.618;2023-02-28T09:57:00;8.60;55.80
2749;DHT22;1382;52.142;11.618;2023-02-28T09:59:51;8.70;56.70
2749;DHT22;1382;52.142;11.618;2023-02-28T10:02:35;8.80;56.80
2749;DHT22;1382;52.142;11.618;2023-02-28T10:05:08;8.80;57.00
2749;DHT22;1382;52.142;11.618;2023-02-28T10:07:51;9.00;57.00
2749;DHT22;1382;52.142;11.618;2023-02-28T10:10:22;9.10;56.60
2749;DHT22;1382;52.142;11.618;2023-02-28T10:12:53;9.20;57.00
2749;DHT22;1382;52.142;11.618;2023-02-28T10:15:24;9.30;57.50
2749;DHT22;1382;52.142;11.618;2023-02-28T10:17:54;9.40;56.80
2749;DHT22;1382;52.142;11.618;2023-02-28T10:20:37;9.40;57.10
2749;DHT22;1382;52.142;11.618;2023-02-28T10:23:11;9.50;57.20
2749;DHT22;1382;52.142;11.618;2023-02-28T10:25:39;9.60;57.00
2749;DHT22;1382;52.142;11.618;2023-02-28T10:28:11;9.70;56.80
2749;DHT22;1382;52.142;11.618;2023-02-28T10:30:42;9.80;57.10
2749;DHT22;1382;52.142;11.618;2023-02-28T10:33:18;9.90;57.40
2749;DHT22;1382;52.142;11.618;2023-02-28T10:35:46;10.00;55.40
2749;DHT22;1382;52.142;11.618;2023-02-28T10:38:17;10.00;55.00
2749;DHT22;1382;52.142;11.618;2023-02-28T10:40:44;10.10;55.70
2749;DHT22;1382;52.142;11.618;2023-02-28T10:43:21;10.20;56.10
2749;DHT22;1382;52.142;11.618;2023-02-28T10:45:57;10.30;55.70
2749;DHT22;1382;52.142;11.618;2023-02-28T10:48:30;10.40;55.60
2749;DHT22;1382;52.142;11.618;2023-02-28T10:50:58;10.50;55.90
2749;DHT22;1382;52.142;11.618;2023-02-28T10:53:33;10.60;56.50
2749;DHT22;1382;52.142;11.618;2023-02-28T10:56:21;10.60;56.00
2749;DHT22;1382;52.142;11.618;2023-02-28T10:58:52;10.70;56.90
2749;DHT22;1382;52.142;11.618;2023-02-28T11:01:23;10.80;57.30
2749;DHT22;1382;52.142;11.618;2023-02-28T11:03:51;10.90;56.90
2749;DHT22;1382;52.142;11.618;2023-02-28T11:06:20;10.90;56.60
2749;DHT22;1382;52.142;11.618;2023-02-28T11:08:50;11.00;56.50
2749;DHT22;1382;52.142;11.618;2023-02-28T11:11:19;11.10;57.00
2749;DHT22;1382;52.142;11.618;2023-02-28T11:13:47;11.20;56.70
2749;DHT22;1382;52.142;11.618;2023-02-28T11:16:15;11.30;56.90
2749;DHT22;1382;52.142;11.618;2023-02-28T11:18:47;11.30;56.50
2749;DHT22;1382;52.142;11.618;2023-02-28T11:21:23;11.40;56.90
2749;DHT22;1382;52.142;11.618;2023-02-28T11:23:52;11.50;57.00
2749;DHT22;1382;52.142;11.618;2023-02-28T11:26:39;11.50;57.20
2749;DHT22;1382;52.142;11.618;2023-02-28T11:29:13;11.60;57.20
2749;DHT22;1382;52.142;11.618;2023-02-28T11:31:42;11.60;56.60
2749;DHT22;1382;52.142;11.618;2023-02-28T11:34:35;11.70;57.10
2749;DHT22;1382;52.142;11.618;2023-02-28T11:37:02;11.80;57.00
2749;DHT22;1382;52.142;11.618;2023-02-28T11:39:30;11.80;56.90
2749;DHT22;1382;52.142;11.618;2023-02-28T11:42:11;11.80;56.80
2749;DHT22;1382;52.142;11.618;2023-02-28T11:44:49;11.90;56.60
2749;DHT22;1382;52.142;11.618;2023-02-28T11:47:28;11.90;56.50
2749;DHT22;1382;52.142;11.618;2023-02-28T11:50:08;12.00;56.00
2749;DHT22;1382;52.142;11.618;2023-02-28T11:52:41;12.10;56.30
2749;DHT22;1382;52.142;11.618;2023-02-28T11:55:16;12.20;56.50
2749;DHT22;1382;52.142;11.618;2023-02-28T11:57:56;12.20;55.80
2749;DHT22;1382;52.142;11.618;2023-02-28T12:00:38;12.30;56.20
2749;DHT22;1382;52.142;11.618;2023-02-28T12:03:16;12.40;56.60
2749;DHT22;1382;52.142;11.618;2023-02-28T12:05:54;12.40;57.00
2749;DHT22;1382;52.142;11.618;2023-02-28T12:08:38;12.40;57.60
2749;DHT22;1382;52.142;11.618;2023-02-28T12:11:13;12.50;56.10
2749;DHT22;1382;52.142;11.618;2023-02-28T12:13:47;12.60;57.10
2749;DHT22;1382;52.142;11.618;2023-02-28T12:16:33;12.60;56.50
2749;DHT22;1382;52.142;11.618;2023-02-28T12:19:16;12.60;56.00
2749;DHT22;1382;52.142;11.618;2023-02-28T12:21:59;12.60;56.70
2749;DHT22;1382;52.142;11.618;2023-02-28T12:24:43;12.70;56.50
2749;DHT22;1382;52.142;11.618;2023-02-28T12:27:17;12.80;56.00
2749;DHT22;1382;52.142;11.618;2023-02-28T12:29:49;12.80;56.40
2749;DHT22;1382;52.142;11.618;2023-02-28T12:32:20;12.90;56.10
2749;DHT22;1382;52.142;11.618;2023-02-28T12:34:51;12.90;56.90
2749;DHT22;1382;52.142;11.618;2023-02-28T12:37:24;12.90;55.80
2749;DHT22;1382;52.142;11.618;2023-02-28T12:39:54;12.90;54.60
2749;DHT22;1382;52.142;11.618;2023-02-28T12:42:27;12.90;54.60
2749;DHT22;1382;52.142;11.618;2023-02-28T12:44:58;13.00;55.10
2749;DHT22;1382;52.142;11.618;2023-02-28T12:47:25;13.00;55.50
2749;DHT22;1382;52.142;11.618;2023-02-28T12:49:55;13.10;56.20
2749;DHT22;1382;52.142;11.618;2023-02-28T12:52:29;13.20;53.50
2749;DHT22;1382;52.142;11.618;2023-02-28T12:55:02;13.40;52.90
2749;DHT22;1382;52.142;11.618;2023-02-28T12:57:34;13.30;53.20
2749;DHT22;1382;52.142;11.618;2023-02-28T13:00:08;13.40;53.40
2749;DHT22;1382;52.142;11.618;2023-02-28T13:02:56;13.50;51.60
2749;DHT22;1382;52.142;11.618;2023-02-28T13:08:48;13.60;50.60
2749;DHT22;1382;52.142;11.618;2023-02-28T13:11:25;13.50;50.00
2749;DHT22;1382;52.142;11.618;2023-02-28T13:13:57;13.40;48.70
2749;DHT22;1382;52.142;11.618;2023-02-28T13:16:25;13.40;47.20
2749;DHT22;1382;52.142;11.618;2023-02-28T13:18:52;13.40;49.00
2749;DHT22;1382;52.142;11.618;2023-02-28T13:21:27;13.50;49.10
2749;DHT22;1382;52.142;11.618;2023-02-28T13:24:02;13.60;49.00
2749;DHT22;1382;52.142;11.618;2023-02-28T13:29:31;13.60;48.50
2749;DHT22;1382;52.142;11.618;2023-02-28T13:35:42;13.70;47.20
2749;DHT22;1382;52.142;11.618;2023-02-28T13:38:34;13.70;48.70
2749;DHT22;1382;52.142;11.618;2023-02-28T13:44:09;13.80;48.30
2749;DHT22;1382;52.142;11.618;2023-02-28T13:47:15;13.70;48.40
2749;DHT22;1382;52.142;11.618;2023-02-28T13:49:26;13.70;47.30
2749;DHT22;1382;52.142;11.618;2023-02-28T13:51:55;13.70;47.30
2749;DHT22;1382;52.142;11.618;2023-02-28T13:54:37;13.70;47.90
2749;DHT22;1382;52.142;11.618;2023-02-28T13:57:21;13.80;46.40
2749;DHT22;1382;52.142;11.618;2023-02-28T14:00:02;13.80;46.80
2749;DHT22;1382;52.142;11.618;2023-02-28T14:02:57;13.80;44.20
2749;DHT22;1382;52.142;11.618;2023-02-28T14:05:29;13.90;46.90
2749;DHT22;1382;52.142;11.618;2023-02-28T14:07:59;13.80;47.00
2749;DHT22;1382;52.142;11.618;2023-02-28T14:10:32;13.90;44.00
2749;DHT22;1382;52.142;11.618;2023-02-28T14:13:12;13.90;45.90
2749;DHT22;1382;52.142;11.618;2023-02-28T14:15:56;13.90;46.90
2749;DHT22;1382;52.142;11.618;2023-02-28T14:18:27;13.90;46.80
2749;DHT22;1382;52.142;11.618;2023-02-28T14:21:01;13.80;46.80
2749;DHT22;1382;52.142;11.618;2023-02-28T14:23:55;13.80;46.40
2749;DHT22;1382;52.142;11.618;2023-02-28T14:26:37;13.80;46.10
2749;DHT22;1382;52.142;11.618;2023-02-28T14:29:27;13.80;46.50
2749;DHT22;1382;52.142;11.618;2023-02-28T14:32:02;13.80;46.40
2749;DHT22;1382;52.142;11.618;2023-02-28T14:34:37;13.70;46.40
2749;DHT22;1382;52.142;11.618;2023-02-28T14:37:09;13.70;46.10
2749;DHT22;1382;52.142;11.618;2023-02-28T14:39:41;13.60;45.80
2749;DHT22;1382;52.142;11.618;2023-02-28T14:42:27;13.60;46.10
2749;DHT22;1382;52.142;11.618;2023-02-28T14:44:54;13.60;46.00
2749;DHT22;1382;52.142;11.618;2023-02-28T14:47:27;13.50;46.60
2749;DHT22;1382;52.142;11.618;2023-02-28T14:49:54;13.50;45.40
2749;DHT22;1382;52.142;11.618;2023-02-28T14:52:23;13.40;45.60
2749;DHT22;1382;52.142;11.618;2023-02-28T14:54:52;13.40;45.10
2749;DHT22;1382;52.142;11.618;2023-02-28T14:57:23;13.40;45.40
2749;DHT22;1382;52.142;11.618;2023-02-28T14:59:58;13.40;45.70
2749;DHT22;1382;52.142;11.618;2023-02-28T15:02:30;13.30;44.90
2749;DHT22;1382;52.142;11.618;2023-02-28T15:04:59;13.30;45.20
2749;DHT22;1382;52.142;11.618;2023-02-28T15:07:27;13.30;45.70
2749;DHT22;1382;52.142;11.618;2023-02-28T15:10:17;13.20;46.30
2749;DHT22;1382;52.142;11.618;2023-02-28T15:12:49;13.30;45.40
2749;DHT22;1382;52.142;11.618;2023-02-28T15:15:18;13.10;45.80
2749;DHT22;1382;52.142;11.618;2023-02-28T15:17:59;13.10;46.10
2749;DHT22;1382;52.142;11.618;2023-02-28T15:20:27;13.10;46.20
2749;DHT22;1382;52.142;11.618;2023-02-28T15:22:55;13.00;46.80
2749;DHT22;1382;52.142;11.618;2023-02-28T15:25:23;12.90;46.10
2749;DHT22;1382;52.142;11.618;2023-02-28T15:27:53;12.90;45.90
2749;DHT22;1382;52.142;11.618;2023-02-28T15:30:21;12.80;46.00
2749;DHT22;1382;52.142;11.618;2023-02-28T15:33:06;12.80;46.50
2749;DHT22;1382;52.142;11.618;2023-02-28T15:35:33;12.80;46.30
2749;DHT22;1382;52.142;11.618;2023-02-28T15:38:02;12.60;46.10
2749;DHT22;1382;52.142;11.618;2023-02-28T15:40:31;12.60;46.30
2749;DHT22;1382;52.142;11.618;2023-02-28T15:43:02;12.60;46.20
2749;DHT22;1382;52.142;11.618;2023-02-28T15:45:34;12.50;46.60
2749;DHT22;1382;52.142;11.618;2023-02-28T15:48:04;12.50;46.50
2749;DHT22;1382;52.142;11.618;2023-02-28T15:50:40;12.40;46.30
2749;DHT22;1382;52.142;11.618;2023-02-28T15:53:13;12.30;46.80
2749;DHT22;1382;52.142;11.618;2023-02-28T15:55:40;12.30;47.00
2749;DHT22;1382;52.142;11.618;2023-02-28T15:58:10;12.30;47.00
2749;DHT22;1382;52.142;11.618;2023-02-28T16:00:38;12.20;46.80
2749;DHT22;1382;52.142;11.618;2023-02-28T16:03:24;12.20;47.30
2749;DHT22;1382;52.142;11.618;2023-02-28T16:06:19;12.20;46.80
2749;DHT22;1382;52.142;11.618;2023-02-28T16:08:48;12.10;47.10
2749;DHT22;1382;52.142;11.618;2023-02-28T16:11:15;12.00;47.20
2749;DHT22;1382;52.142;11.618;2023-02-28T16:13:41;12.00;47.00
2749;DHT22;1382;52.142;11.618;2023-02-28T16:16:08;12.00;46.60
2749;DHT22;1382;52.142;11.618;2023-02-28T16:18:42;11.90;47.80
2749;DHT22;1382;52.142;11.618;2023-02-28T16:21:09;11.90;47.00
2749;DHT22;1382;52.142;11.618;2023-02-28T16:23:36;11.80;46.70
2749;DHT22;1382;52.142;11.618;2023-02-28T16:26:04;11.80;46.90
2749;DHT22;1382;52.142;11.618;2023-02-28T16:28:33;11.70;46.90
2749;DHT22;1382;52.142;11.618;2023-02-28T16:31:01;11.60;47.10
2749;DHT22;1382;52.142;11.618;2023-02-28T16:33:28;11.60;47.50
2749;DHT22;1382;52.142;11.618;2023-02-28T16:35:57;11.50;47.40